createdAt,value
2023-02-28T00:01:03.864Z,3.16
2023-02-28T00:04:06.701Z,3.23
2023-02-28T00:07:09.580Z,3.15
2023-02-28T00:10:16.149Z,3.09
2023-02-28T00:13:18.929Z,3.06
2023-02-28T00:16:23.554Z,3.23
2023-02-28T00:19:26.833Z,3.20
2023-02-28T00:22:29.690Z,3.05
2023-02-28T00:25:32.510Z,3.15
2023-02-28T00:28:35.461Z,3.10
2023-02-28T00:31:38.287Z,3.08
2023-02-28T00:34:41.094Z,3.07
2023-02-28T00:37:45.527Z,3.21
2023-02-28T00:40:48.385Z,3.12
2023-02-28T00:43:51.215Z,3.25
2023-02-28T00:46:55.130Z,3.27
2023-02-28T00:50:01.381Z,3.12
2023-02-28T00:53:04.520Z,3.09
2023-02-28T00:56:07.650Z,3.08
2023-02-28T00:59:10.439Z,3.14
2023-02-28T01:02:13.342Z,3.27
2023-02-28T01:05:16.250Z,3.18
2023-02-28T01:08:19.112Z,3.30
2023-02-28T01:11:21.973Z,3.18
2023-02-28T01:14:24.897Z,3.20
2023-02-28T01:17:27.798Z,3.25
2023-02-28T01:20:30.638Z,3.12
2023-02-28T01:23:33.886Z,3.19
2023-02-28T01:26:36.900Z,3.19
2023-02-28T01:29:43.216Z,3.17
2023-02-28T01:32:46.238Z,3.22
2023-02-28T01:35:49.284Z,3.23
2023-02-28T01:38:52.703Z,3.25
2023-02-28T01:41:57.126Z,3.19
2023-02-28T01:45:18.457Z,3.25
2023-02-28T01:48:31.906Z,3.15
2023-02-28T01:51:46.735Z,3.14
2023-02-28T01:54:54.702Z,3.22
2023-02-28T01:58:01.097Z,3.18
2023-02-28T02:01:05.194Z,3.13
2023-02-28T02:04:09.579Z,3.13
2023-02-28T02:07:13.906Z,3.16
2023-02-28T02:10:22.949Z,3.14
2023-02-28T02:13:28.191Z,3.15
2023-02-28T02:16:50.210Z,3.16
2023-02-28T02:20:19.481Z,3.23
2023-02-28T02:23:45.164Z,3.19
2023-02-28T02:26:56.771Z,3.13
2023-02-28T02:30:18.777Z,3.21
2023-02-28T02:33:40.336Z,3.25
2023-02-28T02:37:00.906Z,3.29
2023-02-28T02:40:26.417Z,3.09
2023-02-28T02:43:46.542Z,3.06
2023-02-28T02:46:52.228Z,3.17
2023-02-28T02:49:58.829Z,3.10
2023-02-28T02:53:04.831Z,3.10
2023-02-28T02:56:09.828Z,3.12
2023-02-28T02:59:14.632Z,3.26
2023-02-28T03:02:19.051Z,3.20
2023-02-28T03:05:27.098Z,3.24
2023-02-28T03:08:36.762Z,3.17
2023-02-28T03:11:42.226Z,3.15
2023-02-28T03:15:05.084Z,3.16
2023-02-28T03:18:52.699Z,3.12
2023-02-28T03:22:11.159Z,3.10
2023-02-28T03:25:40.868Z,3.05
2023-02-28T03:28:49.067Z,3.12
2023-02-28T03:32:00.912Z,3.02
2023-02-28T03:35:25.533Z,3.13
2023-02-28T03:38:34.949Z,3.04
2023-02-28T03:41:47.467Z,3.17
2023-02-28T03:45:01.668Z,3.09
2023-02-28T03:48:27.038Z,3.08
2023-02-28T03:51:30.968Z,3.17
2023-02-28T03:54:38.745Z,3.20
2023-02-28T03:58:22.971Z,3.14
2023-02-28T04:01:39.856Z,3.13
2023-02-28T04:04:49.667Z,3.14
2023-02-28T04:07:53.736Z,3.04
2023-02-28T04:11:07.751Z,3.09
2023-02-28T04:14:12.021Z,3.10
2023-02-28T04:17:14.874Z,3.04
2023-02-28T04:20:17.750Z,3.06
2023-02-28T04:23:20.588Z,3.09
2023-02-28T04:26:23.454Z,2.88
2023-02-28T04:29:29.120Z,2.94
2023-02-28T04:32:32.041Z,2.93
2023-02-28T04:35:34.920Z,2.82
2023-02-28T04:38:39.337Z,2.84
2023-02-28T04:41:42.347Z,2.81
2023-02-28T04:44:45.149Z,2.88
2023-02-28T04:47:48.003Z,2.89
2023-02-28T04:50:51.011Z,3.05
2023-02-28T04:53:54.241Z,2.97
2023-02-28T04:56:57.287Z,2.95
2023-02-28T05:00:00.290Z,2.85
2023-02-28T05:03:03.140Z,2.90
2023-02-28T05:06:06.650Z,2.84
2023-02-28T05:09:09.536Z,2.71
2023-02-28T05:12:12.427Z,2.80
2023-02-28T05:15:16.629Z,2.76
2023-02-28T05:18:19.440Z,2.77
2023-02-28T05:21:37.045Z,2.80
2023-02-28T05:24:39.862Z,2.75
2023-02-28T05:27:42.896Z,2.76
2023-02-28T05:30:45.987Z,2.75
2023-02-28T05:33:49.072Z,2.74
2023-02-28T05:36:52.023Z,2.82
2023-02-28T05:39:54.838Z,2.90
2023-02-28T05:42:57.826Z,2.80
2023-02-28T05:46:03.964Z,2.89
2023-02-28T05:49:07.127Z,2.96
2023-02-28T05:52:10.183Z,2.84
2023-02-28T05:55:13.000Z,2.85
2023-02-28T05:58:15.788Z,2.90
2023-02-28T06:01:25.313Z,2.98
2023-02-28T06:04:32.329Z,3.03
2023-02-28T06:07:34.941Z,3.07
2023-02-28T06:10:38.096Z,3.05
2023-02-28T06:13:40.829Z,3.02
2023-02-28T06:16:44.454Z,3.14
2023-02-28T06:19:47.342Z,3.27
2023-02-28T06:22:52.361Z,3.28
2023-02-28T06:25:58.758Z,3.26
2023-02-28T06:29:01.963Z,3.32
2023-02-28T06:32:04.715Z,3.36
2023-02-28T06:35:08.356Z,3.31
2023-02-28T06:38:11.734Z,3.40
2023-02-28T06:41:14.902Z,3.50
2023-02-28T06:44:18.402Z,3.51
2023-02-28T06:47:21.986Z,3.52
2023-02-28T06:50:24.694Z,3.52
2023-02-28T06:53:27.910Z,3.68
2023-02-28T06:56:30.840Z,3.69
2023-02-28T06:59:34.089Z,3.73
2023-02-28T07:02:38.490Z,3.94
2023-02-28T07:05:42.283Z,4.03
2023-02-28T07:08:45.485Z,4.18
2023-02-28T07:11:48.611Z,4.34
2023-02-28T07:14:51.153Z,4.58
2023-02-28T07:17:54.275Z,4.75
2023-02-28T07:20:57.241Z,4.85
2023-02-28T07:24:00.231Z,4.94
2023-02-28T07:27:02.629Z,5.03
2023-02-28T07:30:06.405Z,5.17
2023-02-28T07:33:09.606Z,5.24
2023-02-28T07:36:16.394Z,5.50
2023-02-28T07:39:19.213Z,5.57
2023-02-28T07:42:22.480Z,5.82
2023-02-28T07:45:29.856Z,5.93
2023-02-28T07:48:34.100Z,6.07
2023-02-28T07:51:36.748Z,6.21
2023-02-28T07:54:39.912Z,6.32
2023-02-28T07:57:42.491Z,6.39
2023-02-28T08:00:45.682Z,6.61
2023-02-28T08:03:48.713Z,6.80
2023-02-28T08:06:53.981Z,7.08
2023-02-28T08:09:56.893Z,7.35
2023-02-28T08:12:59.754Z,7.82
2023-02-28T08:16:04.847Z,8.25
2023-02-28T08:19:07.697Z,8.73
2023-02-28T08:22:10.674Z,9.40
2023-02-28T08:25:13.901Z,10.02
2023-02-28T08:28:17.023Z,10.70
2023-02-28T08:31:20.513Z,10.59
2023-02-28T08:34:24.129Z,10.90
2023-02-28T08:37:27.217Z,12.16
2023-02-28T08:40:30.029Z,13.23
2023-02-28T08:43:33.077Z,13.71
2023-02-28T08:46:36.046Z,14.17
2023-02-28T08:49:39.285Z,15.01
2023-02-28T08:52:45.138Z,16.61
2023-02-28T08:55:47.934Z,18.18
2023-02-28T08:58:51.138Z,20.29
2023-02-28T09:01:54.052Z,22.29
2023-02-28T09:04:56.676Z,23.59
2023-02-28T09:07:59.462Z,22.99
2023-02-28T09:11:03.502Z,21.89
2023-02-28T09:14:06.420Z,20.28
2023-02-28T09:17:09.269Z,19.02
2023-02-28T09:20:12.313Z,18.13
2023-02-28T09:23:15.165Z,17.27
2023-02-28T09:26:20.640Z,16.22
2023-02-28T09:29:23.538Z,14.78
2023-02-28T09:32:26.436Z,13.73
2023-02-28T09:35:29.294Z,13.21
2023-02-28T09:38:32.174Z,12.27
2023-02-28T09:41:48.253Z,11.40
2023-02-28T09:44:52.063Z,11.11
2023-02-28T09:48:00.138Z,10.69
2023-02-28T09:51:49.695Z,10.26
2023-02-28T09:54:53.329Z,10.27
2023-02-28T09:57:58.566Z,10.15
2023-02-28T10:01:07.355Z,10.39
2023-02-28T10:04:13.530Z,10.42
2023-02-28T10:07:56.089Z,10.45
2023-02-28T10:11:03.067Z,10.40
2023-02-28T10:14:17.335Z,10.23
2023-02-28T10:17:36.435Z,10.33
2023-02-28T10:20:44.617Z,10.75
2023-02-28T10:23:49.612Z,11.11
2023-02-28T10:26:58.004Z,11.30
2023-02-28T10:30:03.044Z,11.96
2023-02-28T10:33:05.779Z,12.34
2023-02-28T10:36:16.663Z,12.55
2023-02-28T10:39:40.931Z,12.41
2023-02-28T10:42:57.141Z,12.41
2023-02-28T10:46:11.996Z,12.25
2023-02-28T10:49:22.360Z,11.94
2023-02-28T10:52:38.780Z,11.47
2023-02-28T10:55:42.894Z,11.52
2023-02-28T10:58:51.012Z,11.41
2023-02-28T11:01:54.588Z,11.28
2023-02-28T11:04:57.176Z,10.96
2023-02-28T11:08:15.021Z,10.61
2023-02-28T11:11:19.504Z,10.61
2023-02-28T11:14:32.008Z,10.68
2023-02-28T11:17:34.767Z,10.58
2023-02-28T11:20:37.866Z,10.57
2023-02-28T11:23:42.482Z,10.66
2023-02-28T11:26:49.734Z,10.80
2023-02-28T11:29:52.355Z,10.85
2023-02-28T11:32:55.564Z,10.65
2023-02-28T11:36:12.166Z,10.59
2023-02-28T11:39:17.346Z,10.67
2023-02-28T11:42:27.640Z,10.41
2023-02-28T11:45:49.842Z,10.35
2023-02-28T11:49:19.272Z,10.31
2023-02-28T11:52:46.455Z,10.20
2023-02-28T11:56:07.256Z,10.07
2023-02-28T11:59:25.934Z,10.24
2023-02-28T12:03:02.858Z,10.43
2023-02-28T12:06:15.565Z,10.82
2023-02-28T12:09:45.056Z,11.26
2023-02-28T12:12:51.125Z,11.39
2023-02-28T12:15:59.610Z,11.40
2023-02-28T12:19:18.080Z,11.14
2023-02-28T12:22:32.074Z,11.46
2023-02-28T12:25:54.902Z,11.63
2023-02-28T12:29:25.851Z,11.86
2023-02-28T12:32:38.436Z,12.05
2023-02-28T12:35:50.929Z,12.25
2023-02-28T12:39:00.969Z,12.54
2023-02-28T12:42:27.868Z,12.88
2023-02-28T12:45:52.439Z,13.00
2023-02-28T12:48:58.771Z,13.00
2023-02-28T12:52:04.908Z,12.75
2023-02-28T12:55:28.750Z,12.53
2023-02-28T12:58:45.947Z,12.70
2023-02-28T13:02:07.263Z,12.60
2023-02-28T13:05:29.393Z,12.64
2023-02-28T13:09:09.392Z,12.56
2023-02-28T13:12:17.653Z,12.54
2023-02-28T13:15:25.825Z,12.40
2023-02-28T13:18:38.150Z,12.25
2023-02-28T13:21:45.625Z,11.84
2023-02-28T13:24:52.464Z,11.71
2023-02-28T13:27:57.873Z,11.71
2023-02-28T13:31:04.920Z,11.77
2023-02-28T13:34:16.065Z,11.87
2023-02-28T13:37:19.104Z,11.79
2023-02-28T13:40:38.860Z,11.45
2023-02-28T13:44:03.050Z,11.54
2023-02-28T13:47:05.493Z,11.45
2023-02-28T13:50:33.477Z,11.16
2023-02-28T13:53:58.087Z,11.30
2023-02-28T13:57:07.338Z,11.00
2023-02-28T14:00:26.916Z,10.72
2023-02-28T14:03:38.118Z,10.66
2023-02-28T14:06:50.220Z,10.53
2023-02-28T14:10:00.484Z,10.42
2023-02-28T14:13:45.740Z,10.05
2023-02-28T14:16:51.178Z,10.10
2023-02-28T14:19:54.521Z,10.10
2023-02-28T14:23:33.911Z,9.92
2023-02-28T14:26:54.724Z,9.73
2023-02-28T14:30:35.492Z,9.74
2023-02-28T14:34:12.846Z,9.35
2023-02-28T14:37:28.081Z,9.26
2023-02-28T14:40:36.222Z,9.06
2023-02-28T14:43:49.910Z,8.97
2023-02-28T14:47:06.747Z,8.99
2023-02-28T14:50:21.041Z,9.12
2023-02-28T14:53:24.390Z,8.83
2023-02-28T14:56:35.167Z,8.73
2023-02-28T14:59:37.911Z,8.81
2023-02-28T15:02:41.837Z,8.57
2023-02-28T15:05:53.737Z,8.55
2023-02-28T15:09:09.147Z,8.61
2023-02-28T15:12:16.147Z,8.50
2023-02-28T15:15:28.056Z,8.28
2023-02-28T15:18:48.068Z,8.35
2023-02-28T15:21:58.114Z,8.07
2023-02-28T15:25:03.278Z,7.97
2023-02-28T15:28:06.394Z,7.91
2023-02-28T15:31:22.530Z,7.84
2023-02-28T15:34:44.545Z,7.92
2023-02-28T15:37:49.058Z,7.92
2023-02-28T15:40:59.518Z,7.79
2023-02-28T15:44:25.463Z,7.72
2023-02-28T15:47:31.024Z,7.64
2023-02-28T15:50:33.569Z,7.56
2023-02-28T15:53:54.412Z,7.47
2023-02-28T15:57:02.259Z,7.43
2023-02-28T16:00:06.746Z,7.35
2023-02-28T16:03:41.715Z,7.28
2023-02-28T16:06:45.574Z,7.23
2023-02-28T16:09:49.202Z,7.24
2023-02-28T16:12:55.120Z,7.24
2023-02-28T16:15:57.705Z,7.07
2023-02-28T16:19:00.880Z,7.03
2023-02-28T16:22:03.372Z,6.99
2023-02-28T16:25:08.989Z,6.95
2023-02-28T16:28:25.077Z,6.89
2023-02-28T16:31:29.269Z,6.91
2023-02-28T16:34:32.704Z,6.82
2023-02-28T16:37:35.805Z,6.73
2023-02-28T16:40:38.683Z,6.75
2023-02-28T16:43:41.700Z,6.64
2023-02-28T16:46:44.106Z,6.57
2023-02-28T16:49:48.620Z,6.51
2023-02-28T16:52:55.586Z,6.44
2023-02-28T16:55:59.328Z,6.51
2023-02-28T16:59:02.869Z,6.47
2023-02-28T17:02:13.585Z,6.42
2023-02-28T17:05:16.806Z,6.46
2023-02-28T17:08:20.514Z,6.42
2023-02-28T17:11:23.744Z,6.43
2023-02-28T17:14:29.626Z,6.52
2023-02-28T17:17:32.248Z,6.42
2023-02-28T17:20:35.386Z,6.45
2023-02-28T17:23:37.928Z,6.39
2023-02-28T17:26:42.964Z,6.39
2023-02-28T17:29:45.882Z,6.40
2023-02-28T17:32:48.938Z,6.37
2023-02-28T17:35:52.163Z,6.29
2023-02-28T17:38:59.557Z,6.27
2023-02-28T17:42:02.156Z,6.23
2023-02-28T17:45:05.687Z,6.26
2023-02-28T17:48:12.380Z,6.30
2023-02-28T17:51:16.466Z,6.26
2023-02-28T17:54:19.278Z,6.29
2023-02-28T17:57:22.467Z,6.18
2023-02-28T18:00:25.392Z,6.18
2023-02-28T18:03:29.178Z,6.18
2023-02-28T18:06:50.885Z,6.14
2023-02-28T18:09:54.244Z,6.13
2023-02-28T18:12:57.097Z,6.14
2023-02-28T18:16:00.349Z,6.14
2023-02-28T18:19:03.360Z,6.17
2023-02-28T18:22:09.783Z,6.16
2023-02-28T18:25:16.925Z,6.18
2023-02-28T18:28:20.128Z,6.15
2023-02-28T18:31:22.703Z,6.08
2023-02-28T18:34:26.525Z,6.10
2023-02-28T18:37:29.175Z,6.10
2023-02-28T18:40:32.867Z,6.15
2023-02-28T18:43:38.466Z,6.10
2023-02-28T18:46:43.865Z,6.10
2023-02-28T18:49:47.475Z,6.13
2023-02-28T18:52:51.481Z,6.12
2023-02-28T18:55:54.101Z,6.15
2023-02-28T18:58:57.423Z,6.08
2023-02-28T19:02:00.093Z,6.07
2023-02-28T19:05:03.286Z,6.04
2023-02-28T19:08:05.928Z,6.03
2023-02-28T19:11:11.699Z,6.03
2023-02-28T19:14:14.256Z,6.02
2023-02-28T19:17:17.430Z,6.06
2023-02-28T19:20:20.050Z,6.02
2023-02-28T19:23:23.260Z,6.01
2023-02-28T19:26:26.867Z,6.03
2023-02-28T19:29:29.995Z,6.03
2023-02-28T19:32:32.640Z,6.01
2023-02-28T19:35:35.946Z,6.00
2023-02-28T19:38:39.775Z,6.01
2023-02-28T19:41:42.908Z,6.01
2023-02-28T19:44:45.941Z,6.00
2023-02-28T19:47:49.021Z,5.97
2023-02-28T19:50:56.141Z,5.98
2023-02-28T19:53:59.527Z,5.95
2023-02-28T19:57:02.231Z,6.00
2023-02-28T20:00:05.996Z,6.04
2023-02-28T20:03:15.482Z,6.01
2023-02-28T20:06:18.809Z,5.98
2023-02-28T20:09:21.413Z,5.96
2023-02-28T20:12:25.052Z,5.95
2023-02-28T20:15:28.111Z,5.96
2023-02-28T20:18:31.200Z,5.93
2023-02-28T20:21:34.074Z,5.95
2023-02-28T20:24:37.877Z,5.99
2023-02-28T20:27:40.383Z,5.99
2023-02-28T20:30:44.042Z,5.98
2023-02-28T20:33:48.927Z,5.94
2023-02-28T20:36:52.095Z,5.97
2023-02-28T20:39:56.939Z,5.96
2023-02-28T20:43:00.174Z,5.93
2023-02-28T20:46:03.085Z,5.89
2023-02-28T20:49:06.102Z,5.91
2023-02-28T20:52:08.574Z,6.01
2023-02-28T20:55:12.596Z,5.99
2023-02-28T20:58:14.982Z,5.95
2023-02-28T21:01:25.919Z,6.00
2023-02-28T21:04:28.977Z,5.99
2023-02-28T21:07:32.141Z,6.05
2023-02-28T21:10:34.697Z,6.05
2023-02-28T21:13:38.690Z,6.18
2023-02-28T21:16:41.457Z,6.41
2023-02-28T21:19:44.509Z,6.27
2023-02-28T21:22:47.214Z,6.21
2023-02-28T21:25:50.405Z,6.09
2023-02-28T21:28:57.925Z,6.15
2023-02-28T21:32:02.067Z,6.03
2023-02-28T21:35:04.607Z,6.18
2023-02-28T21:38:07.595Z,6.28
2023-02-28T21:41:14.457Z,6.23
2023-02-28T21:44:22.533Z,6.13
2023-02-28T21:47:25.173Z,6.12
2023-02-28T21:50:28.247Z,6.05
2023-02-28T21:53:32.355Z,6.01
2023-02-28T21:56:35.897Z,6.05
2023-02-28T21:59:38.454Z,6.03
2023-02-28T22:02:41.795Z,6.02
2023-02-28T22:05:44.705Z,6.14
2023-02-28T22:08:53.889Z,6.15
2023-02-28T22:11:57.684Z,6.07
2023-02-28T22:15:00.515Z,6.08
2023-02-28T22:18:03.944Z,6.09
2023-02-28T22:21:08.245Z,6.09
2023-02-28T22:24:11.415Z,6.04
2023-02-28T22:27:14.253Z,6.08
2023-02-28T22:30:17.542Z,6.06
2023-02-28T22:33:20.366Z,6.26
2023-02-28T22:36:23.636Z,6.22
2023-02-28T22:39:26.436Z,6.21
2023-02-28T22:42:33.005Z,6.10
2023-02-28T22:45:40.063Z,6.09
2023-02-28T22:48:42.884Z,6.12
2023-02-28T22:51:45.648Z,6.18
2023-02-28T22:54:51.432Z,6.09
2023-02-28T22:57:54.278Z,6.09
2023-02-28T23:00:57.889Z,6.15
2023-02-28T23:04:01.606Z,6.23
2023-02-28T23:07:07.070Z,6.15
2023-02-28T23:10:15.428Z,6.27
2023-02-28T23:13:19.693Z,6.23
2023-02-28T23:16:22.477Z,6.29
2023-02-28T23:19:30.721Z,6.33
2023-02-28T23:22:33.781Z,6.16
2023-02-28T23:25:40.440Z,6.09
2023-02-28T23:28:43.295Z,6.18
2023-02-28T23:31:46.677Z,6.09
2023-02-28T23:34:49.534Z,6.08
2023-02-28T23:37:52.645Z,6.12
2023-02-28T23:40:55.546Z,6.11
2023-02-28T23:43:58.345Z,6.10
2023-02-28T23:47:01.224Z,6.05
2023-02-28T23:50:05.078Z,5.97
2023-02-28T23:53:08.536Z,5.97
2023-02-28T23:56:14.734Z,6.10
2023-02-28T23:59:17.463Z,6.03
